sensor_id;sensor_type;location;lat;lon;timestamp;temperature;humidity
65179;DHT22;51849;47.476;8.084;2022-08-01T00:01:13;19.10;59.90
65179;DHT22;51849;47.476;8.084;2022-08-01T00:03:40;19.10;59.90
65179;DHT22;51849;47.476;8.084;2022-08-01T00:06:05;19.00;59.80
65179;DHT22;51849;47.476;8.084;2022-08-01T00:08:31;18.90;60.20
65179;DHT22;51849;47.476;8.084;2022-08-01T00:10:59;18.90;60.30
65179;DHT22;51849;47.476;8.084;2022-08-01T00:13:25;18.90;60.30
65179;DHT22;51849;47.476;8.084;2022-08-01T00:15:51;19.00;60.40
65179;DHT22;51849;47.476;8.084;2022-08-01T00:18:16;18.90;60.40
65179;DHT22;51849;47.476;8.084;2022-08-01T00:20:42;18.90;60.40
65179;DHT22;51849;47.476;8.084;2022-08-01T00:23:10;18.90;60.70
65179;DHT22;51849;47.476;8.084;2022-08-01T00:25:35;18.80;60.60
65179;DHT22;51849;47.476;8.084;2022-08-01T00:28:01;18.80;60.70
65179;DHT22;51849;47.476;8.084;2022-08-01T00:30:27;18.70;60.90
65179;DHT22;51849;47.476;8.084;2022-08-01T00:32:59;18.70;61.10
65179;DHT22;51849;47.476;8.084;2022-08-01T00:35:30;18.60;61.40
65179;DHT22;51849;47.476;8.084;2022-08-01T00:37:56;18.60;61.60
65179;DHT22;51849;47.476;8.084;2022-08-01T00:40:22;18.60;61.40
65179;DHT22;51849;47.476;8.084;2022-08-01T00:42:48;18.60;61.70
65179;DHT22;51849;47.476;8.084;2022-08-01T00:45:14;18.60;61.60
65179;DHT22;51849;47.476;8.084;2022-08-01T00:47:39;18.60;61.60
65179;DHT22;51849;47.476;8.084;2022-08-01T00:50:05;18.60;61.40
65179;DHT22;51849;47.476;8.084;2022-08-01T00:52:32;18.60;61.40
65179;DHT22;51849;47.476;8.084;2022-08-01T00:54:58;18.60;61.70
65179;DHT22;51849;47.476;8.084;2022-08-01T00:57:24;18.50;61.80
65179;DHT22;51849;47.476;8.084;2022-08-01T00:59:54;18.50;61.70
65179;DHT22;51849;47.476;8.084;2022-08-01T01:02:19;18.50;61.60
65179;DHT22;51849;47.476;8.084;2022-08-01T01:04:45;18.50;61.70
65179;DHT22;51849;47.476;8.084;2022-08-01T01:10:08;18.40;62.20
65179;DHT22;51849;47.476;8.084;2022-08-01T01:12:38;18.40;62.30
65179;DHT22;51849;47.476;8.084;2022-08-01T01:17:51;18.30;62.70
65179;DHT22;51849;47.476;8.084;2022-08-01T01:20:32;18.30;62.50
65179;DHT22;51849;47.476;8.084;2022-08-01T01:31:36;18.10;63.40
65179;DHT22;51849;47.476;8.084;2022-08-01T01:34:07;18.10;63.50
65179;DHT22;51849;47.476;8.084;2022-08-01T01:36:34;18.00;63.70
65179;DHT22;51849;47.476;8.084;2022-08-01T01:39:04;18.10;63.70
65179;DHT22;51849;47.476;8.084;2022-08-01T01:41:32;18.00;63.80
65179;DHT22;51849;47.476;8.084;2022-08-01T01:44:02;18.00;63.90
65179;DHT22;51849;47.476;8.084;2022-08-01T01:46:30;18.00;63.90
65179;DHT22;51849;47.476;8.084;2022-08-01T01:48:59;18.00;63.70
65179;DHT22;51849;47.476;8.084;2022-08-01T01:51:27;18.00;63.80
65179;DHT22;51849;47.476;8.084;2022-08-01T01:53:54;18.10;63.70
65179;DHT22;51849;47.476;8.084;2022-08-01T01:56:20;18.10;63.50
65179;DHT22;51849;47.476;8.084;2022-08-01T01:58:48;18.20;63.40
65179;DHT22;51849;47.476;8.084;2022-08-01T02:01:22;18.10;63.50
65179;DHT22;51849;47.476;8.084;2022-08-01T02:03:51;18.10;63.40
65179;DHT22;51849;47.476;8.084;2022-08-01T02:06:19;18.20;63.50
65179;DHT22;51849;47.476;8.084;2022-08-01T02:08:46;18.20;63.20
65179;DHT22;51849;47.476;8.084;2022-08-01T02:11:13;18.20;63.00
65179;DHT22;51849;47.476;8.084;2022-08-01T02:13:53;18.30;63.00
65179;DHT22;51849;47.476;8.084;2022-08-01T02:16:24;18.30;62.90
65179;DHT22;51849;47.476;8.084;2022-08-01T02:18:55;18.20;63.80
65179;DHT22;51849;47.476;8.084;2022-08-01T02:21:29;18.20;63.60
65179;DHT22;51849;47.476;8.084;2022-08-01T02:24:01;18.20;63.80
65179;DHT22;51849;47.476;8.084;2022-08-01T02:26:33;18.30;63.60
65179;DHT22;51849;47.476;8.084;2022-08-01T02:29:06;18.30;63.80
65179;DHT22;51849;47.476;8.084;2022-08-01T02:31:36;18.20;64.00
65179;DHT22;51849;47.476;8.084;2022-08-01T02:34:06;18.20;64.30
65179;DHT22;51849;47.476;8.084;2022-08-01T02:36:34;18.10;64.70
65179;DHT22;51849;47.476;8.084;2022-08-01T02:39:03;18.10;64.90
65179;DHT22;51849;47.476;8.084;2022-08-01T02:41:33;18.10;64.80
65179;DHT22;51849;47.476;8.084;2022-08-01T02:44:05;18.10;65.00
65179;DHT22;51849;47.476;8.084;2022-08-01T02:46:39;18.10;65.30
65179;DHT22;51849;47.476;8.084;2022-08-01T02:49:12;18.00;65.70
65179;DHT22;51849;47.476;8.084;2022-08-01T02:51:39;18.00;65.80
65179;DHT22;51849;47.476;8.084;2022-08-01T02:54:07;18.00;65.60
65179;DHT22;51849;47.476;8.084;2022-08-01T02:56:35;18.10;65.40
65179;DHT22;51849;47.476;8.084;2022-08-01T02:59:10;18.00;65.50
65179;DHT22;51849;47.476;8.084;2022-08-01T03:01:42;18.00;65.30
65179;DHT22;51849;47.476;8.084;2022-08-01T03:04:10;18.10;65.20
65179;DHT22;51849;47.476;8.084;2022-08-01T03:06:37;18.00;65.40
65179;DHT22;51849;47.476;8.084;2022-08-01T03:09:03;17.90;65.70
65179;DHT22;51849;47.476;8.084;2022-08-01T03:11:30;17.80;66.10
65179;DHT22;51849;47.476;8.084;2022-08-01T03:13:59;17.80;66.10
65179;DHT22;51849;47.476;8.084;2022-08-01T03:16:27;17.80;66.00
65179;DHT22;51849;47.476;8.084;2022-08-01T03:18:57;17.80;65.80
65179;DHT22;51849;47.476;8.084;2022-08-01T03:21:25;17.80;65.60
65179;DHT22;51849;47.476;8.084;2022-08-01T03:23:53;17.80;65.60
65179;DHT22;51849;47.476;8.084;2022-08-01T03:26:29;17.90;65.70
65179;DHT22;51849;47.476;8.084;2022-08-01T03:29:02;17.80;65.90
65179;DHT22;51849;47.476;8.084;2022-08-01T03:31:32;17.70;65.90
65179;DHT22;51849;47.476;8.084;2022-08-01T03:34:00;17.70;65.90
65179;DHT22;51849;47.476;8.084;2022-08-01T03:36:26;17.80;65.80
65179;DHT22;51849;47.476;8.084;2022-08-01T03:38:57;17.70;65.80
65179;DHT22;51849;47.476;8.084;2022-08-01T03:41:26;17.70;65.80
65179;DHT22;51849;47.476;8.084;2022-08-01T03:43:59;17.70;65.90
65179;DHT22;51849;47.476;8.084;2022-08-01T03:46:32;17.60;66.00
65179;DHT22;51849;47.476;8.084;2022-08-01T03:49:10;17.60;66.10
65179;DHT22;51849;47.476;8.084;2022-08-01T03:51:39;17.60;66.10
65179;DHT22;51849;47.476;8.084;2022-08-01T03:54:05;17.60;66.20
65179;DHT22;51849;47.476;8.084;2022-08-01T03:56:33;17.60;66.30
65179;DHT22;51849;47.476;8.084;2022-08-01T03:59:00;17.50;66.20
65179;DHT22;51849;47.476;8.084;2022-08-01T04:01:27;17.60;66.30
65179;DHT22;51849;47.476;8.084;2022-08-01T04:04:00;17.60;66.20
65179;DHT22;51849;47.476;8.084;2022-08-01T04:06:26;17.60;66.20
65179;DHT22;51849;47.476;8.084;2022-08-01T04:08:52;17.50;66.80
65179;DHT22;51849;47.476;8.084;2022-08-01T04:11:23;17.30;67.40
65179;DHT22;51849;47.476;8.084;2022-08-01T04:13:53;17.30;67.50
65179;DHT22;51849;47.476;8.084;2022-08-01T04:16:20;17.30;67.70
65179;DHT22;51849;47.476;8.084;2022-08-01T04:18:47;17.30;67.40
65179;DHT22;51849;47.476;8.084;2022-08-01T04:21:13;17.30;67.30
65179;DHT22;51849;47.476;8.084;2022-08-01T04:23:45;17.40;67.40
65179;DHT22;51849;47.476;8.084;2022-08-01T04:26:12;17.30;67.80
65179;DHT22;51849;47.476;8.084;2022-08-01T04:28:41;17.30;67.90
65179;DHT22;51849;47.476;8.084;2022-08-01T04:31:11;17.20;68.10
65179;DHT22;51849;47.476;8.084;2022-08-01T04:33:45;17.20;68.40
65179;DHT22;51849;47.476;8.084;2022-08-01T04:36:15;17.20;68.40
65179;DHT22;51849;47.476;8.084;2022-08-01T04:38:44;17.20;68.10
65179;DHT22;51849;47.476;8.084;2022-08-01T04:41:12;17.40;67.90
65179;DHT22;51849;47.476;8.084;2022-08-01T04:43:39;17.30;67.90
65179;DHT22;51849;47.476;8.084;2022-08-01T04:46:05;17.40;67.70
65179;DHT22;51849;47.476;8.084;2022-08-01T04:48:33;17.40;67.40
65179;DHT22;51849;47.476;8.084;2022-08-01T04:51:02;17.50;67.10
65179;DHT22;51849;47.476;8.084;2022-08-01T04:53:28;17.60;67.00
65179;DHT22;51849;47.476;8.084;2022-08-01T04:55:57;17.70;66.90
65179;DHT22;51849;47.476;8.084;2022-08-01T04:58:25;17.90;66.40
65179;DHT22;51849;47.476;8.084;2022-08-01T05:00:51;18.00;66.00
65179;DHT22;51849;47.476;8.084;2022-08-01T05:03:17;18.20;65.40
65179;DHT22;51849;47.476;8.084;2022-08-01T05:05:45;18.50;64.70
65179;DHT22;51849;47.476;8.084;2022-08-01T05:08:10;18.60;64.10
65179;DHT22;51849;47.476;8.084;2022-08-01T05:10:36;18.90;63.50
65179;DHT22;51849;47.476;8.084;2022-08-01T05:13:02;19.10;62.60
65179;DHT22;51849;47.476;8.084;2022-08-01T05:15:29;19.30;61.90
65179;DHT22;51849;47.476;8.084;2022-08-01T05:17:54;19.50;61.30
65179;DHT22;51849;47.476;8.084;2022-08-01T05:20:21;19.70;60.20
65179;DHT22;51849;47.476;8.084;2022-08-01T05:22:47;20.00;59.50
65179;DHT22;51849;47.476;8.084;2022-08-01T05:25:12;20.20;58.40
65179;DHT22;51849;47.476;8.084;2022-08-01T05:27:38;20.40;57.60
65179;DHT22;51849;47.476;8.084;2022-08-01T05:30:07;20.60;57.00
65179;DHT22;51849;47.476;8.084;2022-08-01T05:32:33;20.80;56.30
65179;DHT22;51849;47.476;8.084;2022-08-01T05:35:02;21.00;55.40
65179;DHT22;51849;47.476;8.084;2022-08-01T05:37:31;21.20;54.80
65179;DHT22;51849;47.476;8.084;2022-08-01T05:39:57;21.40;54.40
65179;DHT22;51849;47.476;8.084;2022-08-01T05:42:25;21.60;53.80
65179;DHT22;51849;47.476;8.084;2022-08-01T05:44:51;21.80;53.40
65179;DHT22;51849;47.476;8.084;2022-08-01T05:47:17;22.00;52.70
65179;DHT22;51849;47.476;8.084;2022-08-01T05:49:46;22.10;52.40
65179;DHT22;51849;47.476;8.084;2022-08-01T05:52:11;22.20;52.10
65179;DHT22;51849;47.476;8.084;2022-08-01T05:54:37;22.30;51.80
65179;DHT22;51849;47.476;8.084;2022-08-01T05:57:03;22.40;51.40
65179;DHT22;51849;47.476;8.084;2022-08-01T05:59:29;22.50;51.20
65179;DHT22;51849;47.476;8.084;2022-08-01T06:01:57;22.50;51.20
65179;DHT22;51849;47.476;8.084;2022-08-01T06:04:23;22.60;50.90
65179;DHT22;51849;47.476;8.084;2022-08-01T06:06:49;22.70;50.90
65179;DHT22;51849;47.476;8.084;2022-08-01T06:09:15;22.80;50.60
65179;DHT22;51849;47.476;8.084;2022-08-01T06:11:40;22.90;50.50
65179;DHT22;51849;47.476;8.084;2022-08-01T06:14:06;22.90;50.70
65179;DHT22;51849;47.476;8.084;2022-08-01T06:16:34;22.90;50.60
65179;DHT22;51849;47.476;8.084;2022-08-01T06:19:00;23.10;50.60
65179;DHT22;51849;47.476;8.084;2022-08-01T06:21:26;23.20;50.40
65179;DHT22;51849;47.476;8.084;2022-08-01T06:23:51;23.30;50.10
65179;DHT22;51849;47.476;8.084;2022-08-01T06:26:22;23.50;49.90
65179;DHT22;51849;47.476;8.084;2022-08-01T06:28:48;23.60;49.40
65179;DHT22;51849;47.476;8.084;2022-08-01T06:31:14;23.60;49.00
65179;DHT22;51849;47.476;8.084;2022-08-01T06:33:41;23.70;48.70
65179;DHT22;51849;47.476;8.084;2022-08-01T06:36:07;23.60;48.80
65179;DHT22;51849;47.476;8.084;2022-08-01T06:38:34;23.80;48.50
65179;DHT22;51849;47.476;8.084;2022-08-01T06:41:02;23.90;47.80
65179;DHT22;51849;47.476;8.084;2022-08-01T06:43:28;24.10;47.20
65179;DHT22;51849;47.476;8.084;2022-08-01T06:45:54;24.30;47.00
65179;DHT22;51849;47.476;8.084;2022-08-01T06:48:20;24.50;46.80
65179;DHT22;51849;47.476;8.084;2022-08-01T06:50:45;24.60;46.50
65179;DHT22;51849;47.476;8.084;2022-08-01T06:53:11;24.80;46.40
65179;DHT22;51849;47.476;8.084;2022-08-01T06:55:37;25.00;46.10
65179;DHT22;51849;47.476;8.084;2022-08-01T06:58:06;25.20;45.10
65179;DHT22;51849;47.476;8.084;2022-08-01T07:00:32;25.20;45.10
65179;DHT22;51849;47.476;8.084;2022-08-01T07:02:58;25.30;44.90
65179;DHT22;51849;47.476;8.084;2022-08-01T07:05:24;25.40;44.30
65179;DHT22;51849;47.476;8.084;2022-08-01T07:07:50;25.10;44.20
65179;DHT22;51849;47.476;8.084;2022-08-01T07:10:16;25.10;44.30
65179;DHT22;51849;47.476;8.084;2022-08-01T07:12:42;25.20;43.50
65179;DHT22;51849;47.476;8.084;2022-08-01T07:15:08;25.40;42.80
65179;DHT22;51849;47.476;8.084;2022-08-01T07:17:36;25.60;42.30
65179;DHT22;51849;47.476;8.084;2022-08-01T07:20:03;25.70;41.80
65179;DHT22;51849;47.476;8.084;2022-08-01T07:22:30;25.80;41.50
65179;DHT22;51849;47.476;8.084;2022-08-01T07:24:55;25.80;40.80
65179;DHT22;51849;47.476;8.084;2022-08-01T07:27:21;25.60;41.50
65179;DHT22;51849;47.476;8.084;2022-08-01T07:29:47;25.80;41.00
65179;DHT22;51849;47.476;8.084;2022-08-01T07:32:12;25.80;41.30
65179;DHT22;51849;47.476;8.084;2022-08-01T07:34:38;25.70;41.20
65179;DHT22;51849;47.476;8.084;2022-08-01T07:37:04;25.90;41.30
65179;DHT22;51849;47.476;8.084;2022-08-01T07:39:29;26.20;40.80
65179;DHT22;51849;47.476;8.084;2022-08-01T07:41:55;26.40;40.80
65179;DHT22;51849;47.476;8.084;2022-08-01T07:44:23;26.50;40.40
65179;DHT22;51849;47.476;8.084;2022-08-01T07:46:49;26.50;39.80
65179;DHT22;51849;47.476;8.084;2022-08-01T07:49:14;26.50;39.70
65179;DHT22;51849;47.476;8.084;2022-08-01T07:51:40;26.80;39.60
65179;DHT22;51849;47.476;8.084;2022-08-01T07:54:07;27.00;39.20
65179;DHT22;51849;47.476;8.084;2022-08-01T07:56:33;27.00;38.80
65179;DHT22;51849;47.476;8.084;2022-08-01T07:58:59;27.00;38.90
65179;DHT22;51849;47.476;8.084;2022-08-01T08:01:24;26.90;39.50
65179;DHT22;51849;47.476;8.084;2022-08-01T08:03:50;27.00;38.90
65179;DHT22;51849;47.476;8.084;2022-08-01T08:06:23;27.10;39.30
65179;DHT22;51849;47.476;8.084;2022-08-01T08:08:49;27.30;38.70
65179;DHT22;51849;47.476;8.084;2022-08-01T08:11:15;27.30;38.10
65179;DHT22;51849;47.476;8.084;2022-08-01T08:13:41;27.20;37.90
65179;DHT22;51849;47.476;8.084;2022-08-01T08:16:06;27.10;38.10
65179;DHT22;51849;47.476;8.084;2022-08-01T08:18:32;27.30;38.30
65179;DHT22;51849;47.476;8.084;2022-08-01T08:20:58;27.40;37.80
65179;DHT22;51849;47.476;8.084;2022-08-01T08:23:23;27.60;37.10
65179;DHT22;51849;47.476;8.084;2022-08-01T08:26:12;27.60;37.10
65179;DHT22;51849;47.476;8.084;2022-08-01T08:28:40;27.40;36.90
65179;DHT22;51849;47.476;8.084;2022-08-01T08:31:05;27.20;37.20
65179;DHT22;51849;47.476;8.084;2022-08-01T08:33:31;27.40;37.30
65179;DHT22;51849;47.476;8.084;2022-08-01T08:35:57;27.60;36.60
65179;DHT22;51849;47.476;8.084;2022-08-01T08:38:23;27.80;36.40
65179;DHT22;51849;47.476;8.084;2022-08-01T08:40:52;28.00;36.10
65179;DHT22;51849;47.476;8.084;2022-08-01T08:43:20;28.10;36.20
65179;DHT22;51849;47.476;8.084;2022-08-01T08:45:47;28.00;36.60
65179;DHT22;51849;47.476;8.084;2022-08-01T08:48:13;28.00;36.60
65179;DHT22;51849;47.476;8.084;2022-08-01T08:50:40;28.00;36.20
65179;DHT22;51849;47.476;8.084;2022-08-01T08:53:09;28.00;36.40
65179;DHT22;51849;47.476;8.084;2022-08-01T08:55:35;28.00;36.30
65179;DHT22;51849;47.476;8.084;2022-08-01T08:58:02;27.90;36.20
65179;DHT22;51849;47.476;8.084;2022-08-01T09:00:31;27.70;36.40
65179;DHT22;51849;47.476;8.084;2022-08-01T09:02:58;28.00;36.70
65179;DHT22;51849;47.476;8.084;2022-08-01T09:05:23;28.20;36.10
65179;DHT22;51849;47.476;8.084;2022-08-01T09:07:52;28.30;36.00
65179;DHT22;51849;47.476;8.084;2022-08-01T09:10:18;28.40;35.90
65179;DHT22;51849;47.476;8.084;2022-08-01T09:13:01;28.40;35.50
65179;DHT22;51849;47.476;8.084;2022-08-01T09:15:48;28.50;35.20
65179;DHT22;51849;47.476;8.084;2022-08-01T09:18:31;28.20;35.20
65179;DHT22;51849;47.476;8.084;2022-08-01T09:21:18;28.20;35.80
65179;DHT22;51849;47.476;8.084;2022-08-01T09:26:16;28.40;35.10
65179;DHT22;51849;47.476;8.084;2022-08-01T09:28:44;28.60;34.70
65179;DHT22;51849;47.476;8.084;2022-08-01T09:31:11;28.50;34.50
65179;DHT22;51849;47.476;8.084;2022-08-01T09:33:50;28.70;34.70
65179;DHT22;51849;47.476;8.084;2022-08-01T09:36:16;28.80;34.40
65179;DHT22;51849;47.476;8.084;2022-08-01T09:38:42;28.70;34.60
65179;DHT22;51849;47.476;8.084;2022-08-01T09:41:08;28.70;34.80
65179;DHT22;51849;47.476;8.084;2022-08-01T09:43:36;28.70;34.90
65179;DHT22;51849;47.476;8.084;2022-08-01T09:46:10;28.70;34.40
65179;DHT22;51849;47.476;8.084;2022-08-01T09:48:54;28.90;34.40
65179;DHT22;51849;47.476;8.084;2022-08-01T09:51:33;29.10;33.80
65179;DHT22;51849;47.476;8.084;2022-08-01T09:54:01;29.40;33.80
65179;DHT22;51849;47.476;8.084;2022-08-01T09:56:40;29.50;34.10
65179;DHT22;51849;47.476;8.084;2022-08-01T09:59:08;29.50;33.90
65179;DHT22;51849;47.476;8.084;2022-08-01T10:01:45;29.50;34.20
65179;DHT22;51849;47.476;8.084;2022-08-01T10:04:13;29.60;33.50
65179;DHT22;51849;47.476;8.084;2022-08-01T10:06:40;29.60;33.40
65179;DHT22;51849;47.476;8.084;2022-08-01T10:09:09;29.60;33.30
65179;DHT22;51849;47.476;8.084;2022-08-01T10:11:36;29.50;33.50
65179;DHT22;51849;47.476;8.084;2022-08-01T10:14:06;29.70;33.50
65179;DHT22;51849;47.476;8.084;2022-08-01T10:16:33;29.80;32.70
65179;DHT22;51849;47.476;8.084;2022-08-01T10:19:03;29.90;32.30
65179;DHT22;51849;47.476;8.084;2022-08-01T10:21:32;30.00;32.30
65179;DHT22;51849;47.476;8.084;2022-08-01T10:24:02;30.10;32.30
65179;DHT22;51849;47.476;8.084;2022-08-01T10:26:30;29.90;31.10
65179;DHT22;51849;47.476;8.084;2022-08-01T10:28:58;29.90;30.90
65179;DHT22;51849;47.476;8.084;2022-08-01T10:31:24;30.10;30.30
65179;DHT22;51849;47.476;8.084;2022-08-01T10:33:51;30.40;30.10
65179;DHT22;51849;47.476;8.084;2022-08-01T10:36:18;30.60;30.00
65179;DHT22;51849;47.476;8.084;2022-08-01T10:38:48;30.50;29.90
65179;DHT22;51849;47.476;8.084;2022-08-01T10:41:15;30.60;29.80
65179;DHT22;51849;47.476;8.084;2022-08-01T10:43:41;30.70;29.20
65179;DHT22;51849;47.476;8.084;2022-08-01T10:46:07;31.00;29.40
65179;DHT22;51849;47.476;8.084;2022-08-01T10:51:08;30.90;30.30
65179;DHT22;51849;47.476;8.084;2022-08-01T10:53:34;30.70;30.30
65179;DHT22;51849;47.476;8.084;2022-08-01T10:56:01;30.60;30.40
65179;DHT22;51849;47.476;8.084;2022-08-01T10:58:37;30.70;30.40
65179;DHT22;51849;47.476;8.084;2022-08-01T11:09:01;30.80;28.30
65179;DHT22;51849;47.476;8.084;2022-08-01T11:12:01;31.00;27.90
65179;DHT22;51849;47.476;8.084;2022-08-01T11:14:34;31.20;26.70
65179;DHT22;51849;47.476;8.084;2022-08-01T11:20:10;31.20;28.70
65179;DHT22;51849;47.476;8.084;2022-08-01T11:33:12;31.20;28.30
65179;DHT22;51849;47.476;8.084;2022-08-01T11:35:39;31.20;27.60
65179;DHT22;51849;47.476;8.084;2022-08-01T11:38:46;31.30;27.60
65179;DHT22;51849;47.476;8.084;2022-08-01T11:41:31;31.50;27.80
65179;DHT22;51849;47.476;8.084;2022-08-01T11:43:59;31.50;27.40
65179;DHT22;51849;47.476;8.084;2022-08-01T11:51:47;31.20;27.50
65179;DHT22;51849;47.476;8.084;2022-08-01T11:54:13;31.30;27.90
65179;DHT22;51849;47.476;8.084;2022-08-01T11:56:38;31.40;27.60
65179;DHT22;51849;47.476;8.084;2022-08-01T11:59:13;31.50;27.30
65179;DHT22;51849;47.476;8.084;2022-08-01T12:01:40;31.50;26.80
65179;DHT22;51849;47.476;8.084;2022-08-01T12:04:06;31.50;27.10
65179;DHT22;51849;47.476;8.084;2022-08-01T12:06:32;31.40;27.10
65179;DHT22;51849;47.476;8.084;2022-08-01T12:09:15;31.20;27.20
65179;DHT22;51849;47.476;8.084;2022-08-01T12:11:45;30.90;26.90
65179;DHT22;51849;47.476;8.084;2022-08-01T12:14:15;31.00;27.00
65179;DHT22;51849;47.476;8.084;2022-08-01T12:16:49;30.70;27.40
65179;DHT22;51849;47.476;8.084;2022-08-01T12:19:22;30.50;28.30
65179;DHT22;51849;47.476;8.084;2022-08-01T12:22:12;30.50;27.80
65179;DHT22;51849;47.476;8.084;2022-08-01T12:24:40;30.90;27.10
65179;DHT22;51849;47.476;8.084;2022-08-01T12:27:07;31.20;26.90
65179;DHT22;51849;47.476;8.084;2022-08-01T12:29:39;31.40;26.20
65179;DHT22;51849;47.476;8.084;2022-08-01T12:34:51;31.60;26.10
65179;DHT22;51849;47.476;8.084;2022-08-01T12:37:17;31.50;26.00
65179;DHT22;51849;47.476;8.084;2022-08-01T12:39:44;31.50;26.30
65179;DHT22;51849;47.476;8.084;2022-08-01T12:42:11;31.50;26.50
65179;DHT22;51849;47.476;8.084;2022-08-01T12:44:38;31.60;26.40
65179;DHT22;51849;47.476;8.084;2022-08-01T12:47:05;31.70;26.30
65179;DHT22;51849;47.476;8.084;2022-08-01T12:49:32;31.70;25.80
65179;DHT22;51849;47.476;8.084;2022-08-01T12:52:01;31.70;25.90
65179;DHT22;51849;47.476;8.084;2022-08-01T12:54:27;31.80;25.90
65179;DHT22;51849;47.476;8.084;2022-08-01T12:56:53;31.70;26.30
65179;DHT22;51849;47.476;8.084;2022-08-01T12:59:22;31.70;26.20
65179;DHT22;51849;47.476;8.084;2022-08-01T13:01:53;31.70;26.30
65179;DHT22;51849;47.476;8.084;2022-08-01T13:04:25;31.80;26.20
65179;DHT22;51849;47.476;8.084;2022-08-01T13:06:54;31.70;26.10
65179;DHT22;51849;47.476;8.084;2022-08-01T13:09:20;31.80;25.80
65179;DHT22;51849;47.476;8.084;2022-08-01T13:11:46;31.90;25.00
65179;DHT22;51849;47.476;8.084;2022-08-01T13:14:27;32.00;25.50
65179;DHT22;51849;47.476;8.084;2022-08-01T13:16:53;31.80;25.50
65179;DHT22;51849;47.476;8.084;2022-08-01T13:19:19;31.20;26.60
65179;DHT22;51849;47.476;8.084;2022-08-01T13:21:54;30.80;26.90
65179;DHT22;51849;47.476;8.084;2022-08-01T13:24:22;30.60;26.60
65179;DHT22;51849;47.476;8.084;2022-08-01T13:26:56;30.20;26.20
65179;DHT22;51849;47.476;8.084;2022-08-01T13:29:29;30.10;27.20
65179;DHT22;51849;47.476;8.084;2022-08-01T13:31:57;30.00;28.00
65179;DHT22;51849;47.476;8.084;2022-08-01T13:34:33;30.10;28.30
65179;DHT22;51849;47.476;8.084;2022-08-01T13:37:00;30.50;28.20
65179;DHT22;51849;47.476;8.084;2022-08-01T13:39:29;30.70;27.90
65179;DHT22;51849;47.476;8.084;2022-08-01T13:42:11;30.90;27.20
65179;DHT22;51849;47.476;8.084;2022-08-01T13:44:42;31.00;26.90
65179;DHT22;51849;47.476;8.084;2022-08-01T13:47:10;31.20;27.00
65179;DHT22;51849;47.476;8.084;2022-08-01T13:49:36;31.40;26.90
65179;DHT22;51849;47.476;8.084;2022-08-01T13:52:04;31.50;26.50
65179;DHT22;51849;47.476;8.084;2022-08-01T13:54:32;31.70;26.30
65179;DHT22;51849;47.476;8.084;2022-08-01T13:56:58;31.80;26.60
65179;DHT22;51849;47.476;8.084;2022-08-01T13:59:24;31.70;26.50
65179;DHT22;51849;47.476;8.084;2022-08-01T14:01:50;31.70;26.50
65179;DHT22;51849;47.476;8.084;2022-08-01T14:04:16;31.70;26.70
65179;DHT22;51849;47.476;8.084;2022-08-01T14:06:42;31.70;26.30
65179;DHT22;51849;47.476;8.084;2022-08-01T14:09:07;31.60;26.50
65179;DHT22;51849;47.476;8.084;2022-08-01T14:11:33;31.60;26.40
65179;DHT22;51849;47.476;8.084;2022-08-01T14:14:00;31.60;26.30
65179;DHT22;51849;47.476;8.084;2022-08-01T14:16:28;31.80;26.40
65179;DHT22;51849;47.476;8.084;2022-08-01T14:18:54;31.90;26.80
65179;DHT22;51849;47.476;8.084;2022-08-01T14:21:20;32.00;27.00
65179;DHT22;51849;47.476;8.084;2022-08-01T14:23:45;32.10;26.50
65179;DHT22;51849;47.476;8.084;2022-08-01T14:26:11;32.00;26.60
65179;DHT22;51849;47.476;8.084;2022-08-01T14:28:37;32.00;26.40
65179;DHT22;51849;47.476;8.084;2022-08-01T14:31:04;31.90;26.80
65179;DHT22;51849;47.476;8.084;2022-08-01T14:33:33;31.70;26.70
65179;DHT22;51849;47.476;8.084;2022-08-01T14:35:58;31.60;26.70
65179;DHT22;51849;47.476;8.084;2022-08-01T14:38:25;31.70;26.20
65179;DHT22;51849;47.476;8.084;2022-08-01T14:40:51;31.70;26.30
65179;DHT22;51849;47.476;8.084;2022-08-01T14:43:18;31.50;26.60
65179;DHT22;51849;47.476;8.084;2022-08-01T14:45:43;31.40;27.00
65179;DHT22;51849;47.476;8.084;2022-08-01T14:48:09;31.50;27.20
65179;DHT22;51849;47.476;8.084;2022-08-01T14:50:35;31.50;26.70
65179;DHT22;51849;47.476;8.084;2022-08-01T14:53:01;31.60;26.80
65179;DHT22;51849;47.476;8.084;2022-08-01T14:55:26;31.70;26.40
65179;DHT22;51849;47.476;8.084;2022-08-01T14:57:54;31.60;26.60
65179;DHT22;51849;47.476;8.084;2022-08-01T15:00:20;31.50;26.70
65179;DHT22;51849;47.476;8.084;2022-08-01T15:02:47;31.20;26.80
65179;DHT22;51849;47.476;8.084;2022-08-01T15:05:12;31.30;26.70
65179;DHT22;51849;47.476;8.084;2022-08-01T15:07:38;31.40;27.10
65179;DHT22;51849;47.476;8.084;2022-08-01T15:10:04;31.50;26.90
65179;DHT22;51849;47.476;8.084;2022-08-01T15:12:31;31.50;27.20
65179;DHT22;51849;47.476;8.084;2022-08-01T15:14:57;31.40;27.10
65179;DHT22;51849;47.476;8.084;2022-08-01T15:17:27;31.20;27.50
65179;DHT22;51849;47.476;8.084;2022-08-01T15:20:00;31.20;27.50
65179;DHT22;51849;47.476;8.084;2022-08-01T15:22:30;31.10;27.80
65179;DHT22;51849;47.476;8.084;2022-08-01T15:25:00;31.10;28.00
65179;DHT22;51849;47.476;8.084;2022-08-01T15:27:26;31.00;27.80
65179;DHT22;51849;47.476;8.084;2022-08-01T15:29:53;30.90;27.90
65179;DHT22;51849;47.476;8.084;2022-08-01T15:32:19;30.80;28.10
65179;DHT22;51849;47.476;8.084;2022-08-01T15:34:47;30.80;28.50
65179;DHT22;51849;47.476;8.084;2022-08-01T15:37:13;30.60;28.80
65179;DHT22;51849;47.476;8.084;2022-08-01T15:39:42;30.60;28.90
65179;DHT22;51849;47.476;8.084;2022-08-01T15:42:09;30.60;29.00
65179;DHT22;51849;47.476;8.084;2022-08-01T15:44:36;30.70;29.00
65179;DHT22;51849;47.476;8.084;2022-08-01T15:47:02;30.90;28.70
65179;DHT22;51849;47.476;8.084;2022-08-01T15:49:29;31.00;28.60
65179;DHT22;51849;47.476;8.084;2022-08-01T15:51:55;31.00;28.70
65179;DHT22;51849;47.476;8.084;2022-08-01T15:54:23;31.00;28.50
65179;DHT22;51849;47.476;8.084;2022-08-01T15:56:49;30.90;28.50
65179;DHT22;51849;47.476;8.084;2022-08-01T15:59:15;30.90;28.90
65179;DHT22;51849;47.476;8.084;2022-08-01T16:01:41;30.80;28.60
65179;DHT22;51849;47.476;8.084;2022-08-01T16:04:07;30.70;28.30
65179;DHT22;51849;47.476;8.084;2022-08-01T16:06:33;30.70;28.00
65179;DHT22;51849;47.476;8.084;2022-08-01T16:09:00;30.60;28.10
65179;DHT22;51849;47.476;8.084;2022-08-01T16:11:26;30.60;28.50
65179;DHT22;51849;47.476;8.084;2022-08-01T16:13:52;30.50;29.00
65179;DHT22;51849;47.476;8.084;2022-08-01T16:16:19;30.50;29.30
65179;DHT22;51849;47.476;8.084;2022-08-01T16:18:45;30.50;29.40
65179;DHT22;51849;47.476;8.084;2022-08-01T16:21:11;30.30;29.40
65179;DHT22;51849;47.476;8.084;2022-08-01T16:23:37;30.30;29.40
65179;DHT22;51849;47.476;8.084;2022-08-01T16:26:04;30.20;29.40